createdAt,value
2017-12-01T00:00:40.640Z,1001.19
2017-12-01T00:01:40.610Z,1001.18
2017-12-01T00:02:40.586Z,1001.16
2017-12-01T00:03:40.559Z,1001.16
2017-12-01T00:04:40.535Z,1001.22
2017-12-01T00:05:40.508Z,1001.22
2017-12-01T00:06:40.483Z,1001.21
2017-12-01T00:07:40.458Z,1001.20
2017-12-01T00:08:40.432Z,1001.24
2017-12-01T00:09:40.406Z,1001.22
2017-12-01T00:10:40.381Z,1001.24
2017-12-01T00:11:40.353Z,1001.29
2017-12-01T00:12:40.329Z,1001.32
2017-12-01T00:13:40.302Z,1001.35
2017-12-01T00:14:40.276Z,1001.32
2017-12-01T00:15:40.251Z,1001.34
2017-12-01T00:16:40.224Z,1001.35
2017-12-01T00:17:40.198Z,1001.35
2017-12-01T00:18:40.177Z,1001.39
2017-12-01T00:19:40.149Z,1001.41
2017-12-01T00:20:40.122Z,1001.41
2017-12-01T00:21:40.095Z,1001.38
2017-12-01T00:22:40.071Z,1001.42
2017-12-01T00:23:40.044Z,1001.44
2017-12-01T00:24:40.017Z,1001.46
2017-12-01T00:25:39.991Z,1001.44
2017-12-01T00:26:39.967Z,1001.45
2017-12-01T00:27:39.942Z,1001.47
2017-12-01T00:28:39.914Z,1001.47
2017-12-01T00:29:39.889Z,1001.51
2017-12-01T00:30:39.862Z,1001.53
2017-12-01T00:31:39.837Z,1001.56
2017-12-01T00:32:39.812Z,1001.52
2017-12-01T00:33:39.787Z,1001.54
2017-12-01T00:34:39.760Z,1001.52
2017-12-01T00:35:39.736Z,1001.54
2017-12-01T00:36:39.709Z,1001.52
2017-12-01T00:37:39.683Z,1001.54
2017-12-01T00:38:39.658Z,1001.54
2017-12-01T00:39:39.630Z,1001.56
2017-12-01T00:40:39.605Z,1001.54
2017-12-01T00:41:39.581Z,1001.55
2017-12-01T00:42:39.555Z,1001.55
2017-12-01T00:43:39.529Z,1001.59
2017-12-01T00:44:39.505Z,1001.64
2017-12-01T00:45:39.476Z,1001.65
2017-12-01T00:46:39.451Z,1001.66
2017-12-01T00:47:39.425Z,1001.73
2017-12-01T00:48:39.400Z,1001.67
2017-12-01T00:49:39.374Z,1001.70
2017-12-01T00:50:39.350Z,1001.67
2017-12-01T00:51:39.322Z,1001.67
2017-12-01T00:52:39.297Z,1001.68
2017-12-01T00:53:39.271Z,1001.65
2017-12-01T00:54:39.244Z,1001.67
2017-12-01T00:55:39.219Z,1001.69
2017-12-01T00:56:39.194Z,1001.66
2017-12-01T00:57:39.164Z,1001.73
2017-12-01T00:58:39.144Z,1001.70
2017-12-01T00:59:39.116Z,1001.73
2017-12-01T01:00:39.091Z,1001.73
2017-12-01T01:01:39.065Z,1001.74
2017-12-01T01:02:39.040Z,1001.72
2017-12-01T01:03:39.016Z,1001.77
2017-12-01T01:04:38.987Z,1001.83
2017-12-01T01:05:38.965Z,1001.85
2017-12-01T01:06:38.934Z,1001.86
2017-12-01T01:07:38.910Z,1001.86
2017-12-01T01:08:38.885Z,1001.88
2017-12-01T01:09:38.860Z,1001.95
2017-12-01T01:10:38.833Z,1001.95
2017-12-01T01:11:38.806Z,1001.97
2017-12-01T01:12:38.780Z,1001.96
2017-12-01T01:13:38.754Z,1001.96
2017-12-01T01:14:38.728Z,1001.97
2017-12-01T01:15:38.704Z,1001.94
2017-12-01T01:16:38.677Z,1001.98
2017-12-01T01:17:38.650Z,1002.01
2017-12-01T01:18:38.625Z,1001.98
2017-12-01T01:19:38.599Z,1001.96
2017-12-01T01:20:38.573Z,1002.03
2017-12-01T01:21:38.548Z,1002.03
2017-12-01T01:22:38.519Z,1002.01
2017-12-01T01:23:38.496Z,1002.01
2017-12-01T01:24:38.469Z,1002.05
2017-12-01T01:25:38.443Z,1002.06
2017-12-01T01:26:38.417Z,1002.11
2017-12-01T01:27:38.396Z,1002.13
2017-12-01T01:28:38.366Z,1002.13
2017-12-01T01:29:38.340Z,1002.13
2017-12-01T01:30:38.312Z,1002.15
2017-12-01T01:31:38.291Z,1002.15
2017-12-01T01:32:38.262Z,1002.14
2017-12-01T01:33:38.235Z,1002.14
2017-12-01T01:34:38.212Z,1002.15
2017-12-01T01:35:38.184Z,1002.14
2017-12-01T01:36:38.158Z,1002.17
2017-12-01T01:37:38.131Z,1002.14
2017-12-01T01:38:38.105Z,1002.15
2017-12-01T01:39:38.081Z,1002.20
2017-12-01T01:40:38.058Z,1002.20
2017-12-01T01:41:38.028Z,1002.17
2017-12-01T01:42:38.002Z,1002.19
2017-12-01T01:43:37.982Z,1002.20
2017-12-01T01:44:37.983Z,1002.24
2017-12-01T01:45:37.958Z,1002.26
2017-12-01T01:46:37.913Z,1002.28
2017-12-01T01:47:37.920Z,1002.25
2017-12-01T01:48:37.847Z,1002.32
2017-12-01T01:49:37.819Z,1002.30
2017-12-01T01:50:37.795Z,1002.33
2017-12-01T01:51:37.768Z,1002.31
2017-12-01T01:52:37.754Z,1002.32
2017-12-01T01:53:37.728Z,1002.32
2017-12-01T01:54:37.690Z,1002.37
2017-12-01T01:55:37.683Z,1002.37
2017-12-01T01:56:37.640Z,1002.38
2017-12-01T01:57:37.613Z,1002.41
2017-12-01T01:58:37.586Z,1002.39
2017-12-01T01:59:37.563Z,1002.39
2017-12-01T02:00:37.535Z,1002.40
2017-12-01T02:01:37.509Z,1002.45
2017-12-01T02:02:37.483Z,1002.42
2017-12-01T02:03:37.458Z,1002.46
2017-12-01T02:04:37.432Z,1002.46
2017-12-01T02:05:37.405Z,1002.49
2017-12-01T02:06:37.380Z,1002.51
2017-12-01T02:07:37.354Z,1002.51
2017-12-01T02:08:37.326Z,1002.57
2017-12-01T02:09:37.301Z,1002.55
2017-12-01T02:10:37.276Z,1002.57
2017-12-01T02:11:37.252Z,1002.54
2017-12-01T02:12:37.225Z,1002.55
2017-12-01T02:13:37.198Z,1002.58
2017-12-01T02:14:37.172Z,1002.58
2017-12-01T02:15:37.148Z,1002.61
2017-12-01T02:16:37.120Z,1002.64
2017-12-01T02:17:37.093Z,1002.60
2017-12-01T02:18:37.068Z,1002.67
2017-12-01T02:19:37.043Z,1002.67
2017-12-01T02:20:37.017Z,1002.66
2017-12-01T02:21:36.989Z,1002.64
2017-12-01T02:22:36.964Z,1002.72
2017-12-01T02:23:36.938Z,1002.68
2017-12-01T02:24:36.913Z,1002.69
2017-12-01T02:25:36.887Z,1002.74
2017-12-01T02:26:36.860Z,1002.71
2017-12-01T02:27:36.836Z,1002.75
2017-12-01T02:28:36.825Z,1002.74
2017-12-01T02:29:36.783Z,1002.75
2017-12-01T02:30:36.757Z,1002.77
2017-12-01T02:31:36.731Z,1002.79
2017-12-01T02:32:36.706Z,1002.80
2017-12-01T02:33:36.678Z,1002.81
2017-12-01T02:34:36.652Z,1002.83
2017-12-01T02:35:36.627Z,1002.86
2017-12-01T02:36:36.602Z,1002.85
2017-12-01T02:37:36.573Z,1002.85
2017-12-01T02:38:36.549Z,1002.85
2017-12-01T02:39:36.524Z,1002.87
2017-12-01T02:40:36.497Z,1002.90
2017-12-01T02:41:36.469Z,1002.86
2017-12-01T02:42:36.442Z,1002.87
2017-12-01T02:43:36.470Z,1002.91
2017-12-01T02:44:36.393Z,1002.91
2017-12-01T02:45:36.367Z,1002.89
2017-12-01T02:46:36.348Z,1002.95
2017-12-01T02:47:36.317Z,1002.93
2017-12-01T02:48:36.288Z,1002.99
2017-12-01T02:49:36.262Z,1003.01
2017-12-01T02:50:36.235Z,1003.03
2017-12-01T02:51:36.210Z,1003.06
2017-12-01T02:52:36.185Z,1003.05
2017-12-01T02:53:36.158Z,1003.08
2017-12-01T02:54:36.133Z,1003.06
2017-12-01T02:55:36.108Z,1003.09
2017-12-01T02:56:36.090Z,1003.13
2017-12-01T02:57:36.053Z,1003.11
2017-12-01T02:58:36.026Z,1003.18
2017-12-01T02:59:36.004Z,1003.20
2017-12-01T03:00:35.977Z,1003.19
2017-12-01T03:01:35.949Z,1003.16
2017-12-01T03:02:35.924Z,1003.20
2017-12-01T03:03:35.900Z,1003.16
2017-12-01T03:04:35.872Z,1003.20
2017-12-01T03:05:35.845Z,1003.17
2017-12-01T03:06:35.821Z,1003.15
2017-12-01T03:07:35.795Z,1003.16
2017-12-01T03:08:35.768Z,1003.18
2017-12-01T03:09:35.748Z,1003.17
2017-12-01T03:10:35.714Z,1003.15
2017-12-01T03:11:35.689Z,1003.17
2017-12-01T03:12:35.662Z,1003.17
2017-12-01T03:13:35.637Z,1003.15
2017-12-01T03:14:35.608Z,1003.18
2017-12-01T03:15:35.589Z,1003.18
2017-12-01T03:16:35.560Z,1003.21
2017-12-01T03:17:35.533Z,1003.22
2017-12-01T03:18:35.505Z,1003.21
2017-12-01T03:19:35.484Z,1003.22
2017-12-01T03:20:35.456Z,1003.28
2017-12-01T03:21:35.429Z,1003.26
2017-12-01T03:22:35.403Z,1003.28
2017-12-01T03:23:35.378Z,1003.27
2017-12-01T03:24:35.352Z,1003.30
2017-12-01T03:25:35.325Z,1003.31
2017-12-01T03:26:35.299Z,1003.32
2017-12-01T03:27:35.272Z,1003.33
2017-12-01T03:28:35.247Z,1003.38
2017-12-01T03:29:35.220Z,1003.36
2017-12-01T03:30:35.193Z,1003.35
2017-12-01T03:31:35.172Z,1003.41
2017-12-01T03:32:35.142Z,1003.40
2017-12-01T03:33:35.116Z,1003.42
2017-12-01T03:34:35.089Z,1003.49
2017-12-01T03:35:35.064Z,1003.54
2017-12-01T03:36:35.040Z,1003.59
2017-12-01T03:37:35.011Z,1003.60
2017-12-01T03:38:34.994Z,1003.60
2017-12-01T03:39:34.962Z,1003.60
2017-12-01T03:40:34.934Z,1003.60
2017-12-01T03:41:34.906Z,1003.64
2017-12-01T03:42:34.881Z,1003.64
2017-12-01T03:43:34.855Z,1003.61
2017-12-01T03:44:34.830Z,1003.63
2017-12-01T03:45:34.803Z,1003.67
2017-12-01T03:46:34.776Z,1003.66
2017-12-01T03:47:34.755Z,1003.66
2017-12-01T03:48:34.726Z,1003.66
2017-12-01T03:49:34.700Z,1003.70
2017-12-01T03:50:34.672Z,1003.66
2017-12-01T03:51:34.648Z,1003.69
2017-12-01T03:52:34.622Z,1003.68
2017-12-01T03:53:34.595Z,1003.69
2017-12-01T03:54:34.569Z,1003.76
2017-12-01T03:55:34.547Z,1003.75
2017-12-01T03:56:34.517Z,1003.73
2017-12-01T03:57:34.490Z,1003.77
2017-12-01T03:58:34.464Z,1003.79
2017-12-01T03:59:34.440Z,1003.83
2017-12-01T04:00:34.413Z,1003.85
2017-12-01T04:01:34.385Z,1003.87
2017-12-01T04:02:34.360Z,1003.88
2017-12-01T04:03:34.334Z,1003.94
2017-12-01T04:04:34.309Z,1003.96
2017-12-01T04:05:34.283Z,1003.95
2017-12-01T04:06:34.256Z,1003.94
2017-12-01T04:07:34.230Z,1003.96
2017-12-01T04:08:34.204Z,1003.99
2017-12-01T04:09:34.177Z,1004.01
2017-12-01T04:10:34.152Z,1004.02
2017-12-01T04:11:34.129Z,1004.08
2017-12-01T04:12:34.098Z,1004.08
2017-12-01T04:13:34.072Z,1004.13
2017-12-01T04:14:34.047Z,1004.16
2017-12-01T04:15:34.021Z,1004.18
2017-12-01T04:16:33.997Z,1004.16
2017-12-01T04:17:33.969Z,1004.21
2017-12-01T04:18:33.943Z,1004.21
2017-12-01T04:19:33.918Z,1004.21
2017-12-01T04:20:33.892Z,1004.24
2017-12-01T04:21:33.865Z,1004.25
2017-12-01T04:22:33.839Z,1004.24
2017-12-01T04:23:33.812Z,1004.32
2017-12-01T04:24:33.786Z,1004.30
2017-12-01T04:25:33.761Z,1004.28
2017-12-01T04:26:33.734Z,1004.32
2017-12-01T04:27:33.709Z,1004.32
2017-12-01T04:28:33.686Z,1004.36
2017-12-01T04:29:33.657Z,1004.37
2017-12-01T04:30:33.630Z,1004.36
2017-12-01T04:31:33.604Z,1004.39
2017-12-01T04:32:33.579Z,1004.41
2017-12-01T04:33:33.552Z,1004.46
2017-12-01T04:34:33.526Z,1004.47
2017-12-01T04:35:33.499Z,1004.52
2017-12-01T04:36:33.474Z,1004.49
2017-12-01T04:37:33.447Z,1004.56
2017-12-01T04:38:33.423Z,1004.56
2017-12-01T04:39:33.395Z,1004.56
2017-12-01T04:40:33.370Z,1004.58
2017-12-01T04:41:33.342Z,1004.51
2017-12-01T04:42:33.317Z,1004.54
2017-12-01T04:43:33.291Z,1004.59
2017-12-01T04:44:33.282Z,1004.64
2017-12-01T04:45:33.239Z,1004.64
2017-12-01T04:46:33.212Z,1004.68
2017-12-01T04:47:33.187Z,1004.72
2017-12-01T04:48:33.160Z,1004.74
2017-12-01T04:49:33.134Z,1004.77
2017-12-01T04:50:33.108Z,1004.75
2017-12-01T04:51:33.082Z,1004.80
2017-12-01T04:52:33.056Z,1004.83
2017-12-01T04:53:33.028Z,1004.81
2017-12-01T04:54:33.006Z,1004.81
2017-12-01T04:55:32.979Z,1004.85
2017-12-01T04:56:32.953Z,1004.82
2017-12-01T04:57:32.928Z,1004.84
2017-12-01T04:58:32.902Z,1004.88
2017-12-01T04:59:32.875Z,1004.87
2017-12-01T05:00:32.849Z,1004.90
2017-12-01T05:01:32.823Z,1004.96
2017-12-01T05:02:32.796Z,1004.95
2017-12-01T05:03:32.771Z,1004.93
2017-12-01T05:04:32.745Z,1004.95
2017-12-01T05:05:32.716Z,1004.95
2017-12-01T05:06:32.692Z,1004.97
2017-12-01T05:07:32.667Z,1005.01
2017-12-01T05:08:32.641Z,1005.01
2017-12-01T05:09:32.613Z,1005.01
2017-12-01T05:10:32.590Z,1005.03
2017-12-01T05:11:32.562Z,1005.00
2017-12-01T05:12:32.536Z,1005.00
2017-12-01T05:13:32.510Z,1005.01
2017-12-01T05:14:32.486Z,1005.05
2017-12-01T05:15:32.458Z,1005.03
2017-12-01T05:16:32.433Z,1005.01
2017-12-01T05:17:32.406Z,1005.03
2017-12-01T05:18:32.380Z,1005.05
2017-12-01T05:19:32.354Z,1005.02
2017-12-01T05:20:32.329Z,1005.06
2017-12-01T05:21:32.303Z,1005.08
2017-12-01T05:22:32.277Z,1005.09
2017-12-01T05:23:32.251Z,1005.09
2017-12-01T05:24:32.226Z,1005.16
2017-12-01T05:25:32.197Z,1005.17
2017-12-01T05:26:32.173Z,1005.17
2017-12-01T05:27:32.148Z,1005.24
2017-12-01T05:28:32.122Z,1005.20
2017-12-01T05:29:32.095Z,1005.21
2017-12-01T05:30:32.076Z,1005.24
2017-12-01T05:31:32.045Z,1005.24
2017-12-01T05:32:32.018Z,1005.27
2017-12-01T05:33:31.991Z,1005.23
2017-12-01T05:34:31.966Z,1005.26
2017-12-01T05:35:31.942Z,1005.32
2017-12-01T05:36:31.915Z,1005.29
2017-12-01T05:37:31.893Z,1005.32
2017-12-01T05:38:31.862Z,1005.38
2017-12-01T05:39:31.837Z,1005.44
2017-12-01T05:40:31.811Z,1005.43
2017-12-01T05:41:31.784Z,1005.42
2017-12-01T05:42:31.762Z,1005.44
2017-12-01T05:43:31.735Z,1005.48
2017-12-01T05:44:31.707Z,1005.54
2017-12-01T05:45:31.682Z,1005.51
2017-12-01T05:46:31.655Z,1005.52
2017-12-01T05:47:31.630Z,1005.54
2017-12-01T05:48:31.605Z,1005.58
2017-12-01T05:49:31.578Z,1005.61
2017-12-01T05:50:31.553Z,1005.59
2017-12-01T05:51:31.527Z,1005.56
2017-12-01T05:52:31.499Z,1005.60
2017-12-01T05:53:31.473Z,1005.60
2017-12-01T05:54:31.446Z,1005.58
2017-12-01T05:55:31.421Z,1005.62
2017-12-01T05:56:31.396Z,1005.65
2017-12-01T05:57:31.371Z,1005.69
2017-12-01T05:58:31.342Z,1005.67
2017-12-01T05:59:31.317Z,1005.73
2017-12-01T06:00:31.292Z,1005.75
2017-12-01T06:01:31.265Z,1005.75
2017-12-01T06:02:31.239Z,1005.75
2017-12-01T06:03:31.217Z,1005.75
2017-12-01T06:04:31.188Z,1005.79
2017-12-01T06:05:31.163Z,1005.80
2017-12-01T06:06:31.136Z,1005.81
2017-12-01T06:07:31.110Z,1005.77
2017-12-01T06:08:31.084Z,1005.81
2017-12-01T06:09:31.058Z,1005.81
2017-12-01T06:10:31.031Z,1005.77
2017-12-01T06:11:31.007Z,1005.82
2017-12-01T06:12:30.981Z,1005.84
2017-12-01T06:13:30.953Z,1005.78
2017-12-01T06:14:30.926Z,1005.83
2017-12-01T06:15:30.906Z,1005.85
2017-12-01T06:16:30.876Z,1005.83
2017-12-01T06:17:30.851Z,1005.86
2017-12-01T06:18:30.824Z,1005.88
2017-12-01T06:19:30.800Z,1005.92
2017-12-01T06:20:30.774Z,1005.95
2017-12-01T06:21:30.747Z,1005.96
2017-12-01T06:22:30.720Z,1005.97
2017-12-01T06:23:30.694Z,1005.99
2017-12-01T06:24:30.669Z,1006.04
2017-12-01T06:25:30.646Z,1006.02
2017-12-01T06:26:30.615Z,1006.00
2017-12-01T06:27:30.590Z,1006.06
2017-12-01T06:28:30.564Z,1006.06
2017-12-01T06:29:30.538Z,1006.03
2017-12-01T06:30:30.513Z,1006.08
2017-12-01T06:31:30.488Z,1006.14
2017-12-01T06:32:30.460Z,1006.17
2017-12-01T06:33:30.434Z,1006.18
2017-12-01T06:34:30.408Z,1006.21
2017-12-01T06:35:30.383Z,1006.25
2017-12-01T06:36:30.383Z,1006.30
2017-12-01T06:37:30.330Z,1006.30
2017-12-01T06:38:30.304Z,1006.32
2017-12-01T06:39:30.279Z,1006.37
2017-12-01T06:40:30.255Z,1006.36
2017-12-01T06:41:30.226Z,1006.39
2017-12-01T06:42:30.199Z,1006.38
2017-12-01T06:43:30.173Z,1006.37
2017-12-01T06:44:30.148Z,1006.43
2017-12-01T06:45:30.121Z,1006.42
2017-12-01T06:46:30.094Z,1006.45
2017-12-01T06:47:30.070Z,1006.49
2017-12-01T06:48:30.042Z,1006.48
2017-12-01T06:49:30.017Z,1006.49
2017-12-01T06:50:29.991Z,1006.51
2017-12-01T06:51:29.983Z,1006.56
2017-12-01T06:52:29.938Z,1006.51
2017-12-01T06:53:29.911Z,1006.60
2017-12-01T06:54:29.886Z,1006.60
2017-12-01T06:55:29.859Z,1006.59
2017-12-01T06:56:29.833Z,1006.65
2017-12-01T06:57:29.807Z,1006.66
2017-12-01T06:58:29.781Z,1006.64
2017-12-01T06:59:29.755Z,1006.62
2017-12-01T07:00:29.729Z,1006.69
2017-12-01T07:01:29.743Z,1006.73
2017-12-01T07:02:29.677Z,1006.75
2017-12-01T07:03:29.651Z,1006.72
2017-12-01T07:04:29.625Z,1006.79
2017-12-01T07:05:29.598Z,1006.77
2017-12-01T07:06:29.572Z,1006.80
2017-12-01T07:07:29.547Z,1006.79
2017-12-01T07:08:29.519Z,1006.85
2017-12-01T07:09:29.495Z,1006.83
2017-12-01T07:10:29.471Z,1006.82
2017-12-01T07:11:29.440Z,1006.87
2017-12-01T07:12:29.416Z,1006.86
2017-12-01T07:13:29.389Z,1006.90
2017-12-01T07:14:29.361Z,1006.88
2017-12-01T07:15:29.336Z,1006.88
2017-12-01T07:16:29.311Z,1006.93
2017-12-01T07:17:29.283Z,1006.93
2017-12-01T07:18:29.260Z,1006.94
2017-12-01T07:19:29.236Z,1006.98
2017-12-01T07:20:29.206Z,1006.97
2017-12-01T07:21:29.177Z,1007.03
2017-12-01T07:22:29.153Z,1007.02
2017-12-01T07:23:29.130Z,1007.03
2017-12-01T07:24:29.101Z,1007.07
2017-12-01T07:25:29.074Z,1007.07
2017-12-01T07:26:29.050Z,1007.08
2017-12-01T07:27:29.027Z,1007.15
2017-12-01T07:28:28.996Z,1007.12
2017-12-01T07:29:28.970Z,1007.15
2017-12-01T07:30:28.944Z,1007.15
2017-12-01T07:31:28.916Z,1007.16
2017-12-01T07:32:28.891Z,1007.19
2017-12-01T07:33:28.864Z,1007.21
2017-12-01T07:34:28.841Z,1007.24
2017-12-01T07:35:28.811Z,1007.23
2017-12-01T07:36:28.787Z,1007.26
2017-12-01T07:37:28.759Z,1007.24
2017-12-01T07:38:28.733Z,1007.29
2017-12-01T07:39:28.707Z,1007.25
2017-12-01T07:40:28.681Z,1007.32
2017-12-01T07:41:28.657Z,1007.37
2017-12-01T07:42:28.629Z,1007.37
2017-12-01T07:43:28.602Z,1007.40
2017-12-01T07:44:28.576Z,1007.44
2017-12-01T07:45:28.551Z,1007.47
2017-12-01T07:46:28.524Z,1007.47
2017-12-01T07:47:28.499Z,1007.54
2017-12-01T07:48:28.472Z,1007.52
2017-12-01T07:49:28.446Z,1007.52
2017-12-01T07:50:28.425Z,1007.58
2017-12-01T07:51:28.395Z,1007.55
2017-12-01T07:52:28.367Z,1007.55
2017-12-01T07:53:28.343Z,1007.55
2017-12-01T07:54:28.314Z,1007.58
2017-12-01T07:55:28.289Z,1007.63
2017-12-01T07:56:28.261Z,1007.66
2017-12-01T07:57:28.237Z,1007.67
2017-12-01T07:58:28.211Z,1007.66
2017-12-01T07:59:28.185Z,1007.71
2017-12-01T08:00:28.159Z,1007.69
2017-12-01T08:01:28.163Z,1007.69
2017-12-01T08:02:28.105Z,1007.72
2017-12-01T08:03:28.080Z,1007.74
2017-12-01T08:04:28.059Z,1007.75
2017-12-01T08:05:28.032Z,1007.77
2017-12-01T08:06:28.002Z,1007.76
2017-12-01T08:07:27.978Z,1007.77
2017-12-01T08:08:27.951Z,1007.78
2017-12-01T08:09:27.927Z,1007.80
2017-12-01T08:10:27.899Z,1007.84
2017-12-01T08:11:27.872Z,1007.88
2017-12-01T08:12:27.845Z,1007.89
2017-12-01T08:13:27.822Z,1007.91
2017-12-01T08:14:27.794Z,1007.96
2017-12-01T08:15:27.770Z,1007.97
2017-12-01T08:16:27.746Z,1007.99
2017-12-01T08:17:27.719Z,1007.99
2017-12-01T08:18:27.694Z,1008.03
2017-12-01T08:19:27.666Z,1008.03
2017-12-01T08:20:27.642Z,1008.04
2017-12-01T08:21:27.615Z,1008.09
2017-12-01T08:22:27.590Z,1008.10
2017-12-01T08:23:27.564Z,1008.10
2017-12-01T08:24:27.541Z,1008.13
2017-12-01T08:25:27.512Z,1008.13
2017-12-01T08:26:27.529Z,1008.20
2017-12-01T08:27:27.510Z,1008.17
2017-12-01T08:28:27.436Z,1008.20
2017-12-01T08:29:27.410Z,1008.20
2017-12-01T08:30:27.385Z,1008.21
2017-12-01T08:31:27.360Z,1008.24
2017-12-01T08:32:27.334Z,1008.26
2017-12-01T08:33:27.308Z,1008.30
2017-12-01T08:34:27.282Z,1008.29
2017-12-01T08:35:27.258Z,1008.33
2017-12-01T08:36:27.238Z,1008.34
2017-12-01T08:37:27.209Z,1008.37
2017-12-01T08:38:27.181Z,1008.43
2017-12-01T08:39:27.154Z,1008.44
2017-12-01T08:40:27.129Z,1008.44
2017-12-01T08:41:27.103Z,1008.44
2017-12-01T08:42:27.078Z,1008.45
2017-12-01T08:43:27.054Z,1008.45
2017-12-01T08:44:27.027Z,1008.45
2017-12-01T08:45:27.011Z,1008.47
2017-12-01T08:46:26.974Z,1008.47
2017-12-01T08:47:26.949Z,1008.50
2017-12-01T08:48:26.925Z,1008.53
2017-12-01T08:49:26.898Z,1008.51
2017-12-01T08:50:26.874Z,1008.55
2017-12-01T08:51:26.848Z,1008.56
2017-12-01T08:52:26.823Z,1008.62
2017-12-01T08:53:26.797Z,1008.63
2017-12-01T08:54:26.772Z,1008.62
2017-12-01T08:55:26.747Z,1008.64
2017-12-01T08:56:26.722Z,1008.63
2017-12-01T08:57:26.694Z,1008.63
2017-12-01T08:58:26.669Z,1008.64
2017-12-01T08:59:26.645Z,1008.65
2017-12-01T09:00:26.619Z,1008.64
2017-12-01T09:01:26.593Z,1008.69
2017-12-01T09:02:26.569Z,1008.71
2017-12-01T09:03:26.543Z,1008.76
2017-12-01T09:04:26.517Z,1008.78
2017-12-01T09:05:26.493Z,1008.81
2017-12-01T09:06:26.467Z,1008.79
2017-12-01T09:07:26.441Z,1008.83
2017-12-01T09:08:26.419Z,1008.82
2017-12-01T09:09:26.391Z,1008.84
2017-12-01T09:10:26.364Z,1008.89
2017-12-01T09:11:26.341Z,1008.94
2017-12-01T09:12:26.315Z,1008.96
2017-12-01T09:13:26.289Z,1008.95
2017-12-01T09:14:26.264Z,1008.98
2017-12-01T09:15:26.240Z,1008.99
2017-12-01T09:16:26.216Z,1008.99
2017-12-01T09:17:26.188Z,1008.97
2017-12-01T09:18:26.163Z,1009.00
2017-12-01T09:19:26.138Z,1009.03
2017-12-01T09:20:26.114Z,1009.05
2017-12-01T09:21:26.087Z,1009.03
2017-12-01T09:22:26.063Z,1009.06
2017-12-01T09:23:26.038Z,1009.12
2017-12-01T09:24:26.013Z,1009.07
2017-12-01T09:25:25.988Z,1009.10
2017-12-01T09:26:26.053Z,1009.15
2017-12-01T09:27:25.938Z,1009.13
2017-12-01T09:28:25.914Z,1009.17
2017-12-01T09:29:25.887Z,1009.21
2017-12-01T09:30:25.862Z,1009.19
2017-12-01T09:31:25.838Z,1009.20
2017-12-01T09:32:25.814Z,1009.25
2017-12-01T09:33:25.788Z,1009.25
2017-12-01T09:34:25.767Z,1009.25
2017-12-01T09:35:25.738Z,1009.30
2017-12-01T09:36:25.711Z,1009.29
2017-12-01T09:37:25.689Z,1009.34
2017-12-01T09:38:25.663Z,1009.36
2017-12-01T09:39:25.639Z,1009.35
2017-12-01T09:40:25.614Z,1009.37
2017-12-01T09:41:25.589Z,1009.42
2017-12-01T09:42:25.571Z,1009.50
2017-12-01T09:43:25.539Z,1009.45
2017-12-01T09:44:25.514Z,1009.47
2017-12-01T09:45:25.488Z,1009.48
2017-12-01T09:46:25.463Z,1009.50
2017-12-01T09:47:25.438Z,1009.53
2017-12-01T09:48:25.416Z,1009.51
2017-12-01T09:49:25.390Z,1009.49
2017-12-01T09:50:25.364Z,1009.52
2017-12-01T09:51:25.345Z,1009.57
2017-12-01T09:52:25.317Z,1009.57
2017-12-01T09:53:25.291Z,1009.61
2017-12-01T09:54:25.265Z,1009.63
2017-12-01T09:55:25.242Z,1009.67
2017-12-01T09:56:25.217Z,1009.65
2017-12-01T09:57:25.191Z,1009.66
2017-12-01T09:58:25.167Z,1009.66
2017-12-01T09:59:25.142Z,1009.64
2017-12-01T10:00:25.119Z,1009.68
2017-12-01T10:01:25.094Z,1009.67
2017-12-01T10:02:25.070Z,1009.67
2017-12-01T10:03:25.045Z,1009.69
2017-12-01T10:04:25.023Z,1009.71
2017-12-01T10:05:24.997Z,1009.71
2017-12-01T10:06:24.973Z,1009.71
2017-12-01T10:07:24.950Z,1009.74
2017-12-01T10:08:24.927Z,1009.67
2017-12-01T10:09:24.901Z,1009.69
2017-12-01T10:10:24.876Z,1009.71
2017-12-01T10:11:24.854Z,1009.72
2017-12-01T10:12:24.829Z,1009.73
2017-12-01T10:13:24.804Z,1009.74
2017-12-01T10:14:24.781Z,1009.70
2017-12-01T10:15:24.756Z,1009.73
2017-12-01T10:16:24.732Z,1009.77
2017-12-01T10:17:24.708Z,1009.81
2017-12-01T10:18:24.683Z,1009.83
2017-12-01T10:19:24.659Z,1009.81
2017-12-01T10:20:24.637Z,1009.79
2017-12-01T10:21:24.612Z,1009.83
2017-12-01T10:22:24.587Z,1009.83
2017-12-01T10:23:24.564Z,1009.85
2017-12-01T10:24:24.538Z,1009.83
2017-12-01T10:25:24.518Z,1009.85
2017-12-01T10:26:24.491Z,1009.84
2017-12-01T10:27:24.466Z,1009.83
2017-12-01T10:28:24.444Z,1009.84
2017-12-01T10:29:24.419Z,1009.84
2017-12-01T10:30:24.396Z,1009.86
2017-12-01T10:31:24.373Z,1009.89
2017-12-01T10:32:24.355Z,1009.87
2017-12-01T10:33:24.325Z,1009.91
2017-12-01T10:34:24.302Z,1009.94
2017-12-01T10:35:24.278Z,1009.95
2017-12-01T10:36:24.254Z,1009.91
2017-12-01T10:37:24.230Z,1009.95
2017-12-01T10:38:24.215Z,1009.94
2017-12-01T10:39:24.182Z,1009.94
2017-12-01T10:40:24.159Z,1009.99
2017-12-01T10:41:24.134Z,1010.00
2017-12-01T10:42:24.112Z,1010.03
2017-12-01T10:43:24.088Z,1010.00
2017-12-01T10:44:24.072Z,1010.00
2017-12-01T10:45:24.041Z,1009.99
2017-12-01T10:46:24.017Z,1010.02
2017-12-01T10:47:23.993Z,1010.02
2017-12-01T10:48:23.971Z,1010.07
2017-12-01T10:49:23.946Z,1010.06
2017-12-01T10:50:23.923Z,1010.08
2017-12-01T10:51:23.899Z,1010.09
2017-12-01T10:52:23.876Z,1010.10
2017-12-01T10:53:23.852Z,1010.13
2017-12-01T10:54:23.832Z,1010.13
2017-12-01T10:55:23.805Z,1010.11
2017-12-01T10:56:23.791Z,1010.12
2017-12-01T10:57:23.761Z,1010.10
2017-12-01T10:58:23.736Z,1010.13
2017-12-01T10:59:23.714Z,1010.20
2017-12-01T11:00:23.690Z,1010.19
2017-12-01T11:01:23.668Z,1010.23
2017-12-01T11:02:23.645Z,1010.25
2017-12-01T11:03:23.623Z,1010.19
2017-12-01T11:04:23.604Z,1010.20
2017-12-01T11:05:23.580Z,1010.24
2017-12-01T11:06:23.559Z,1010.24
2017-12-01T11:07:23.536Z,1010.23
2017-12-01T11:08:23.516Z,1010.26
2017-12-01T11:09:23.494Z,1010.34
2017-12-01T11:10:23.472Z,1010.43
2017-12-01T11:11:23.451Z,1010.44
2017-12-01T11:12:23.432Z,1010.45
2017-12-01T11:13:23.414Z,1010.49
2017-12-01T11:14:23.391Z,1010.50
2017-12-01T11:15:23.373Z,1010.52
2017-12-01T11:16:23.354Z,1010.57
2017-12-01T11:17:23.332Z,1010.45
2017-12-01T11:18:23.323Z,1010.46
2017-12-01T11:19:23.336Z,1010.48
2017-12-01T11:20:23.283Z,1010.36
2017-12-01T11:21:23.265Z,1010.39
2017-12-01T11:22:23.245Z,1010.53
2017-12-01T11:23:23.229Z,1010.48
2017-12-01T11:24:23.211Z,1010.45
2017-12-01T11:25:23.194Z,1010.56
2017-12-01T11:26:23.179Z,1010.48
2017-12-01T11:27:23.160Z,1010.47
2017-12-01T11:28:23.143Z,1010.43
2017-12-01T11:29:23.127Z,1010.37
2017-12-01T11:30:23.108Z,1010.42
2017-12-01T11:31:23.096Z,1010.36
2017-12-01T11:32:23.092Z,1010.36
2017-12-01T11:33:23.057Z,1010.33
2017-12-01T11:34:23.039Z,1010.34
2017-12-01T11:35:23.024Z,1010.32
2017-12-01T11:36:23.004Z,1010.34
2017-12-01T11:37:22.992Z,1010.36
2017-12-01T11:38:22.971Z,1010.37
2017-12-01T11:39:22.954Z,1010.41
2017-12-01T11:40:22.935Z,1010.40
2017-12-01T11:41:22.915Z,1010.42
2017-12-01T11:42:22.902Z,1010.42
2017-12-01T11:43:22.878Z,1010.46
2017-12-01T11:44:22.860Z,1010.48
2017-12-01T11:45:22.839Z,1010.43
2017-12-01T11:46:22.821Z,1010.46
2017-12-01T11:47:22.802Z,1010.44
2017-12-01T11:48:22.799Z,1010.48
2017-12-01T11:49:22.764Z,1010.51
2017-12-01T11:50:22.742Z,1010.54
2017-12-01T11:51:22.724Z,1010.52
2017-12-01T11:52:22.710Z,1010.51
2017-12-01T11:53:22.683Z,1010.57
2017-12-01T11:54:22.663Z,1010.52
2017-12-01T11:55:22.641Z,1010.56
2017-12-01T11:56:22.622Z,1010.59
2017-12-01T11:57:22.602Z,1010.53
2017-12-01T11:58:22.583Z,1010.58
2017-12-01T11:59:22.561Z,1010.61
2017-12-01T12:00:22.541Z,1010.64
2017-12-01T12:01:22.520Z,1010.65
2017-12-01T12:02:22.500Z,1010.66
2017-12-01T12:03:22.480Z,1010.69
2017-12-01T12:04:22.459Z,1010.69
2017-12-01T12:05:22.439Z,1010.80